aviador You're here:

RKTU Decoded Metar

CHONGJU in KOREA
Report Time2017-08-19 14:36:00
UTC Time2017-08-19 14:55:04
Flight Rules vfr VFR
Wind340° at 02 kt
W.Decomp.*RWY 06: 0.6 kt HW 1.9 kt LCW
W.Rank340° ranks 28
Current wind is below 340° avg. (2.6)
Visibility8000 m
Phenomena:N/A
Clouds:Scattered 030 Hf
Broken 080 Hf
Ceiling8,000 ft
Temp23°C (ISA +8)
Dew Point23°C (100% RH)
QNH1011 hPa
Density Alt1,634 ft
Elevation217 ft
Report Wrong Elevation
Raw Report
SPECI RKTU 191436Z 34002KT 8000 SCT030 BKN080 23/23 Q1011 NOSIG=

Extra information for RKTU:More info

Metar Taf Metar & Taf Last 4 Metars F.Rules Stats Wind Profile Meteogram Temp Stats Airport Information Weather charts Add Link Nearby VenuesMetar ALERT Operation Metar Decoded Social comments